createdAt,value
2019-01-29T00:00:24.016Z,0.00
2019-01-29T00:01:23.982Z,0.00
2019-01-29T00:02:23.979Z,0.00
2019-01-29T00:03:24.109Z,0.00
2019-01-29T00:04:23.976Z,0.00
2019-01-29T00:05:23.983Z,0.00
2019-01-29T00:06:24.033Z,0.00
2019-01-29T00:07:23.997Z,0.00
2019-01-29T00:08:23.999Z,0.00
2019-01-29T00:09:24.075Z,0.00
2019-01-29T00:10:23.987Z,0.00
2019-01-29T00:11:24.035Z,0.00
2019-01-29T00:12:24.043Z,0.00
2019-01-29T00:13:24.000Z,0.00
2019-01-29T00:14:24.010Z,0.00
2019-01-29T00:15:24.015Z,0.00
2019-01-29T00:16:24.057Z,0.00
2019-01-29T00:17:24.050Z,0.00
2019-01-29T00:18:24.026Z,0.00
2019-01-29T00:19:24.050Z,0.00
2019-01-29T00:20:24.053Z,0.00
2019-01-29T00:21:24.032Z,0.00
2019-01-29T00:22:24.097Z,0.00
2019-01-29T00:23:24.035Z,0.00
2019-01-29T00:24:24.054Z,0.00
2019-01-29T00:25:24.054Z,0.00
2019-01-29T00:26:24.061Z,0.00
2019-01-29T00:27:24.067Z,0.00
2019-01-29T00:28:24.090Z,0.00
2019-01-29T00:29:24.112Z,0.00
2019-01-29T00:30:24.605Z,0.00
2019-01-29T00:31:24.125Z,0.00
2019-01-29T00:32:24.075Z,0.00
2019-01-29T00:33:24.121Z,0.00
2019-01-29T00:34:24.090Z,0.00
2019-01-29T00:35:24.083Z,0.00
2019-01-29T00:36:24.102Z,0.00
2019-01-29T00:37:24.119Z,0.00
2019-01-29T00:38:24.198Z,0.00
2019-01-29T00:39:24.099Z,0.00
2019-01-29T00:40:24.112Z,0.00
2019-01-29T00:41:24.110Z,0.00
2019-01-29T00:42:24.118Z,0.00
2019-01-29T00:43:24.144Z,0.00
2019-01-29T00:44:24.172Z,0.00
2019-01-29T00:45:24.115Z,0.00
2019-01-29T00:46:24.140Z,0.00
2019-01-29T00:47:24.144Z,0.00
2019-01-29T00:48:24.125Z,0.00
2019-01-29T00:49:24.171Z,0.00
2019-01-29T00:50:24.185Z,0.00
2019-01-29T00:51:24.180Z,0.00
2019-01-29T00:52:24.153Z,0.00
2019-01-29T00:53:24.159Z,0.00
2019-01-29T00:54:24.172Z,0.00
2019-01-29T00:55:24.201Z,0.00
2019-01-29T00:56:24.191Z,0.00
2019-01-29T00:57:24.175Z,0.00
2019-01-29T00:58:24.175Z,0.00
2019-01-29T00:59:24.177Z,0.00
2019-01-29T01:00:24.210Z,0.00
2019-01-29T01:01:24.193Z,0.00
2019-01-29T01:02:24.179Z,0.00
2019-01-29T01:03:24.197Z,0.00
2019-01-29T01:04:24.195Z,0.00
2019-01-29T01:05:24.284Z,0.00
2019-01-29T01:06:24.202Z,0.00
2019-01-29T01:07:24.217Z,0.00
2019-01-29T01:08:24.220Z,0.00
2019-01-29T01:09:24.223Z,0.00
2019-01-29T01:10:24.218Z,0.00
2019-01-29T01:11:24.236Z,0.00
2019-01-29T01:12:24.248Z,0.00
2019-01-29T01:13:24.223Z,0.00
2019-01-29T01:14:24.240Z,0.00
2019-01-29T01:15:24.228Z,0.00
2019-01-29T01:16:24.261Z,0.00
2019-01-29T01:17:24.258Z,0.00
2019-01-29T01:18:24.261Z,0.00
2019-01-29T01:19:24.266Z,0.00
2019-01-29T01:20:24.258Z,0.00
2019-01-29T01:21:24.255Z,0.00
2019-01-29T01:22:24.304Z,0.00
2019-01-29T01:23:24.274Z,0.00
2019-01-29T01:24:24.268Z,0.00
2019-01-29T01:25:24.261Z,0.00
2019-01-29T01:26:24.293Z,0.00
2019-01-29T01:27:24.266Z,0.00
2019-01-29T01:28:24.332Z,0.00
2019-01-29T01:29:24.279Z,0.00
2019-01-29T01:30:24.277Z,0.00
2019-01-29T01:31:24.282Z,0.00
2019-01-29T01:32:24.297Z,0.00
2019-01-29T01:33:24.336Z,0.00
2019-01-29T01:34:24.385Z,0.00
2019-01-29T01:35:24.309Z,0.00
2019-01-29T01:36:24.317Z,0.00
2019-01-29T01:37:24.305Z,0.00
2019-01-29T01:38:24.314Z,0.00
2019-01-29T01:39:24.348Z,0.00
2019-01-29T01:40:24.323Z,0.00
2019-01-29T01:41:24.362Z,0.00
2019-01-29T01:42:24.326Z,0.00
2019-01-29T01:43:24.337Z,0.00
2019-01-29T01:44:24.383Z,0.00
2019-01-29T01:45:24.341Z,0.00
2019-01-29T01:46:24.333Z,0.00
2019-01-29T01:47:24.338Z,0.00
2019-01-29T01:48:24.364Z,0.00
2019-01-29T01:49:24.348Z,0.00
2019-01-29T01:50:24.391Z,0.00
2019-01-29T01:51:24.385Z,0.00
2019-01-29T01:52:24.358Z,0.00
2019-01-29T01:53:24.388Z,0.00
2019-01-29T01:54:24.375Z,0.00
2019-01-29T01:55:24.395Z,0.00
2019-01-29T01:56:24.380Z,0.00
2019-01-29T01:57:24.367Z,0.00
2019-01-29T01:58:24.378Z,0.00
2019-01-29T01:59:24.378Z,0.00
2019-01-29T02:00:24.393Z,0.00
2019-01-29T02:01:24.419Z,0.00
2019-01-29T02:02:24.406Z,0.00
2019-01-29T02:03:24.410Z,0.00
2019-01-29T02:04:24.437Z,0.00
2019-01-29T02:05:24.441Z,0.00
2019-01-29T02:06:24.433Z,0.00
2019-01-29T02:07:24.421Z,0.00
2019-01-29T02:08:24.426Z,0.00
2019-01-29T02:09:24.423Z,0.00
2019-01-29T02:10:24.419Z,0.00
2019-01-29T02:11:24.433Z,0.00
2019-01-29T02:12:25.595Z,0.00
2019-01-29T02:13:24.431Z,0.00
2019-01-29T02:14:24.428Z,0.00
2019-01-29T02:15:24.440Z,0.00
2019-01-29T02:16:24.446Z,0.00
2019-01-29T02:17:24.460Z,0.00
2019-01-29T02:18:24.440Z,0.00
2019-01-29T02:19:24.476Z,0.00
2019-01-29T02:20:24.445Z,0.00
2019-01-29T02:21:24.458Z,0.00
2019-01-29T02:22:24.499Z,0.00
2019-01-29T02:23:24.467Z,0.00
2019-01-29T02:24:24.452Z,0.00
2019-01-29T02:25:24.479Z,0.00
2019-01-29T02:26:24.465Z,0.00
2019-01-29T02:27:24.487Z,0.00
2019-01-29T02:28:24.478Z,0.00
2019-01-29T02:29:24.487Z,0.00
2019-01-29T02:30:24.488Z,0.00
2019-01-29T02:31:24.476Z,0.00
2019-01-29T02:32:24.487Z,0.00
2019-01-29T02:33:25.145Z,0.00
2019-01-29T02:34:24.549Z,0.00
2019-01-29T02:35:24.513Z,0.00
2019-01-29T02:36:24.501Z,0.00
2019-01-29T02:37:24.503Z,0.00
2019-01-29T02:38:24.504Z,0.00
2019-01-29T02:39:24.511Z,0.00
2019-01-29T02:40:24.540Z,0.00
2019-01-29T02:41:24.511Z,0.00
2019-01-29T02:42:24.513Z,0.00
2019-01-29T02:43:24.576Z,0.00
2019-01-29T02:44:24.526Z,0.00
2019-01-29T02:45:24.545Z,0.00
2019-01-29T02:46:24.531Z,0.00
2019-01-29T02:47:24.586Z,0.00
2019-01-29T02:48:24.527Z,0.00
2019-01-29T02:49:24.558Z,0.00
2019-01-29T02:50:24.545Z,0.00
2019-01-29T02:51:24.552Z,0.00
2019-01-29T02:52:24.599Z,0.00
2019-01-29T02:53:24.583Z,0.00
2019-01-29T02:54:24.602Z,0.00
2019-01-29T02:55:24.577Z,0.00
2019-01-29T02:56:24.577Z,0.00
2019-01-29T02:57:24.560Z,0.00
2019-01-29T02:58:24.558Z,0.00
2019-01-29T02:59:24.580Z,0.00
2019-01-29T03:00:24.572Z,0.00
2019-01-29T03:01:24.625Z,0.00
2019-01-29T03:02:24.569Z,0.00
2019-01-29T03:03:24.573Z,0.00
2019-01-29T03:04:24.574Z,0.00
2019-01-29T03:05:24.579Z,0.00
2019-01-29T03:06:24.575Z,0.00
2019-01-29T03:07:24.611Z,0.00
2019-01-29T03:08:24.622Z,0.00
2019-01-29T03:09:24.594Z,0.00
2019-01-29T03:10:24.616Z,0.00
2019-01-29T03:11:24.611Z,0.00
2019-01-29T03:12:24.646Z,0.00
2019-01-29T03:13:24.605Z,0.00
2019-01-29T03:14:24.629Z,0.00
2019-01-29T03:15:24.617Z,0.00
2019-01-29T03:16:24.607Z,0.00
2019-01-29T03:17:24.629Z,0.00
2019-01-29T03:18:24.635Z,0.00
2019-01-29T03:19:24.624Z,0.00
2019-01-29T03:20:24.627Z,0.00
2019-01-29T03:21:24.657Z,0.00
2019-01-29T03:22:24.661Z,0.00
2019-01-29T03:23:27.676Z,0.00
2019-01-29T03:24:24.656Z,0.00
2019-01-29T03:25:24.629Z,0.00
2019-01-29T03:26:24.723Z,0.00
2019-01-29T03:27:24.678Z,0.00
2019-01-29T03:28:24.699Z,0.00
2019-01-29T03:29:24.677Z,0.00
2019-01-29T03:30:24.659Z,0.00
2019-01-29T03:31:24.667Z,0.00
2019-01-29T03:32:24.674Z,0.00
2019-01-29T03:33:24.662Z,0.00
2019-01-29T03:34:24.703Z,0.00
2019-01-29T03:35:24.674Z,0.00
2019-01-29T03:36:24.667Z,0.00
2019-01-29T03:37:24.724Z,0.00
2019-01-29T03:38:24.681Z,0.00
2019-01-29T03:39:24.690Z,0.00
2019-01-29T03:40:24.686Z,0.00
2019-01-29T03:41:24.700Z,0.00
2019-01-29T03:42:24.682Z,0.00
2019-01-29T03:43:24.727Z,0.00
2019-01-29T03:44:24.695Z,0.00
2019-01-29T03:45:24.691Z,0.00
2019-01-29T03:46:24.694Z,0.00
2019-01-29T03:47:24.756Z,0.00
2019-01-29T03:48:24.710Z,0.00
2019-01-29T03:49:24.714Z,0.00
2019-01-29T03:50:24.734Z,0.00
2019-01-29T03:51:24.715Z,0.00
2019-01-29T03:52:24.723Z,0.00
2019-01-29T03:53:24.746Z,0.00
2019-01-29T03:54:24.730Z,0.00
2019-01-29T03:55:24.714Z,0.00
2019-01-29T03:56:24.722Z,0.00
2019-01-29T03:57:24.722Z,0.00
2019-01-29T03:58:24.773Z,0.00
2019-01-29T03:59:24.735Z,0.00
2019-01-29T04:00:24.727Z,0.00
2019-01-29T04:01:24.735Z,0.00
2019-01-29T04:02:24.743Z,0.00
2019-01-29T04:03:24.731Z,0.00
2019-01-29T04:04:24.779Z,0.00
2019-01-29T04:05:24.775Z,0.00
2019-01-29T04:06:24.753Z,0.00
2019-01-29T04:07:24.753Z,0.00
2019-01-29T04:08:24.767Z,0.00
2019-01-29T04:09:24.783Z,0.00
2019-01-29T04:10:24.752Z,0.00
2019-01-29T04:11:24.762Z,0.00
2019-01-29T04:12:24.797Z,0.00
2019-01-29T04:13:24.758Z,0.00
2019-01-29T04:14:24.761Z,0.00
2019-01-29T04:15:24.768Z,0.00
2019-01-29T04:16:24.765Z,0.00
2019-01-29T04:17:24.777Z,0.00
2019-01-29T04:18:24.822Z,0.00
2019-01-29T04:19:24.781Z,0.00
2019-01-29T04:20:24.794Z,0.00
2019-01-29T04:21:24.786Z,0.00
2019-01-29T04:22:24.780Z,0.00
2019-01-29T04:23:24.844Z,0.00
2019-01-29T04:24:24.783Z,0.00
2019-01-29T04:25:24.811Z,0.00
2019-01-29T04:26:24.794Z,0.00
2019-01-29T04:27:24.797Z,0.00
2019-01-29T04:28:24.794Z,0.00
2019-01-29T04:29:24.811Z,0.00
2019-01-29T04:30:24.806Z,0.00
2019-01-29T04:31:24.817Z,0.00
2019-01-29T04:32:24.828Z,0.00
2019-01-29T04:33:24.864Z,0.00
2019-01-29T04:34:24.815Z,0.00
2019-01-29T04:35:24.823Z,0.00
2019-01-29T04:36:24.826Z,0.00
2019-01-29T04:37:24.822Z,0.00
2019-01-29T04:38:24.856Z,0.00
2019-01-29T04:39:24.869Z,0.00
2019-01-29T04:40:24.820Z,0.00
2019-01-29T04:41:24.824Z,0.00
2019-01-29T04:42:24.834Z,0.00
2019-01-29T04:43:24.827Z,0.00
2019-01-29T04:44:24.852Z,0.00
2019-01-29T04:45:24.868Z,0.00
2019-01-29T04:46:24.873Z,0.00
2019-01-29T04:47:24.855Z,0.00
2019-01-29T04:48:24.854Z,0.00
2019-01-29T04:49:24.846Z,0.00
2019-01-29T04:50:24.876Z,0.00
2019-01-29T04:51:24.873Z,0.00
2019-01-29T04:52:24.857Z,0.00
2019-01-29T04:53:24.891Z,0.00
2019-01-29T04:54:24.880Z,0.00
2019-01-29T04:55:24.883Z,0.00
2019-01-29T04:56:24.889Z,0.00
2019-01-29T04:57:24.884Z,0.00
2019-01-29T04:58:24.877Z,0.00
2019-01-29T04:59:24.879Z,0.00
2019-01-29T05:00:24.883Z,0.00
2019-01-29T05:01:24.927Z,0.00
2019-01-29T05:02:24.887Z,0.00
2019-01-29T05:03:24.892Z,0.00
2019-01-29T05:04:24.898Z,0.00
2019-01-29T05:05:24.891Z,0.00
2019-01-29T05:06:24.902Z,0.00
2019-01-29T05:07:24.965Z,0.00
2019-01-29T05:08:24.907Z,0.00
2019-01-29T05:09:24.908Z,0.00
2019-01-29T05:10:24.919Z,0.00
2019-01-29T05:11:24.912Z,0.00
2019-01-29T05:12:24.902Z,0.00
2019-01-29T05:13:24.925Z,0.00
2019-01-29T05:14:24.919Z,0.00
2019-01-29T05:15:24.968Z,0.00
2019-01-29T05:16:24.917Z,0.00
2019-01-29T05:17:24.926Z,0.00
2019-01-29T05:18:24.959Z,0.00
2019-01-29T05:19:24.958Z,0.00
2019-01-29T05:20:24.935Z,0.00
2019-01-29T05:21:24.955Z,0.00
2019-01-29T05:22:24.925Z,0.00
2019-01-29T05:23:24.957Z,0.00
2019-01-29T05:24:25.065Z,0.00
2019-01-29T05:25:25.074Z,0.00
2019-01-29T05:26:24.963Z,0.00
2019-01-29T05:27:24.964Z,0.00
2019-01-29T05:28:24.953Z,0.00
2019-01-29T05:29:24.942Z,0.00
2019-01-29T05:30:24.987Z,0.00
2019-01-29T05:31:24.958Z,0.00
2019-01-29T05:32:24.962Z,0.00
2019-01-29T05:33:24.968Z,0.00
2019-01-29T05:34:24.972Z,0.00
2019-01-29T05:35:25.013Z,0.00
2019-01-29T05:36:25.011Z,0.00
2019-01-29T05:37:24.969Z,0.00
2019-01-29T05:38:24.977Z,0.00
2019-01-29T05:39:25.000Z,0.00
2019-01-29T05:40:24.995Z,0.00
2019-01-29T05:41:24.971Z,0.00
2019-01-29T05:42:25.029Z,0.00
2019-01-29T05:43:24.993Z,0.00
2019-01-29T05:44:25.001Z,0.00
2019-01-29T05:45:25.021Z,0.00
2019-01-29T05:46:25.268Z,0.00
2019-01-29T05:47:25.032Z,0.00
2019-01-29T05:48:24.988Z,0.00
2019-01-29T05:49:25.006Z,0.00
2019-01-29T05:50:25.091Z,0.00
2019-01-29T05:51:25.013Z,0.00
2019-01-29T05:52:25.037Z,0.00
2019-01-29T05:53:25.023Z,0.00
2019-01-29T05:54:25.018Z,0.00
2019-01-29T05:55:25.026Z,0.00
2019-01-29T05:56:25.054Z,0.00
2019-01-29T05:57:25.015Z,0.00
2019-01-29T05:58:25.040Z,0.00
2019-01-29T05:59:25.022Z,0.00
2019-01-29T06:00:25.039Z,0.00
2019-01-29T06:01:25.052Z,0.00
2019-01-29T06:02:25.046Z,0.00
2019-01-29T06:03:25.112Z,0.00
2019-01-29T06:04:25.042Z,0.00
2019-01-29T06:05:25.062Z,0.00
2019-01-29T06:06:25.054Z,0.00
2019-01-29T06:07:25.038Z,0.00
2019-01-29T06:08:25.053Z,0.00
2019-01-29T06:09:25.111Z,0.00
2019-01-29T06:10:25.063Z,0.00
2019-01-29T06:11:25.121Z,0.00
2019-01-29T06:12:25.053Z,0.00
2019-01-29T06:13:25.049Z,0.00
2019-01-29T06:14:25.066Z,0.00
2019-01-29T06:15:25.078Z,0.00
2019-01-29T06:16:25.071Z,0.00
2019-01-29T06:17:27.458Z,0.00
2019-01-29T06:18:25.079Z,0.00
2019-01-29T06:19:25.120Z,0.00
2019-01-29T06:20:25.087Z,4.00
2019-01-29T06:21:25.080Z,0.00
2019-01-29T06:22:25.169Z,4.00
2019-01-29T06:23:25.361Z,4.00
2019-01-29T06:24:26.046Z,4.00
2019-01-29T06:25:25.595Z,4.00
2019-01-29T06:26:25.500Z,8.00
2019-01-29T06:27:25.109Z,8.00
2019-01-29T06:28:25.098Z,12.00
2019-01-29T06:29:25.115Z,8.00
2019-01-29T06:30:25.406Z,12.00
2019-01-29T06:31:25.225Z,16.00
2019-01-29T06:32:25.255Z,16.00
2019-01-29T06:33:25.114Z,16.00
2019-01-29T06:34:25.173Z,24.00
2019-01-29T06:35:25.149Z,24.00
2019-01-29T06:36:25.132Z,28.00
2019-01-29T06:37:25.108Z,32.00
2019-01-29T06:38:25.149Z,36.00
2019-01-29T06:39:25.119Z,44.00
2019-01-29T06:40:25.125Z,48.00
2019-01-29T06:41:25.123Z,56.00
2019-01-29T06:42:25.347Z,64.00
2019-01-29T06:43:25.131Z,68.00
2019-01-29T06:44:25.189Z,80.00
2019-01-29T06:45:25.130Z,84.00
2019-01-29T06:46:25.140Z,96.00
2019-01-29T06:47:25.144Z,108.00
2019-01-29T06:48:25.138Z,120.00
2019-01-29T06:49:25.161Z,132.00
2019-01-29T06:50:25.157Z,144.00
2019-01-29T06:51:25.126Z,160.00
2019-01-29T06:52:25.182Z,172.00
2019-01-29T06:53:25.156Z,192.00
2019-01-29T06:54:25.157Z,208.00
2019-01-29T06:55:25.151Z,228.00
2019-01-29T06:56:25.173Z,248.00
2019-01-29T06:57:25.223Z,272.00
2019-01-29T06:58:25.199Z,292.00
2019-01-29T06:59:25.191Z,312.00
2019-01-29T07:00:25.216Z,332.00
2019-01-29T07:01:25.151Z,356.00
2019-01-29T07:02:25.182Z,376.00
2019-01-29T07:03:25.174Z,400.00
2019-01-29T07:04:25.199Z,420.00
2019-01-29T07:05:25.191Z,440.00
2019-01-29T07:06:25.160Z,444.00
2019-01-29T07:07:25.308Z,480.00
2019-01-29T07:08:25.164Z,468.00
2019-01-29T07:09:25.165Z,472.00
2019-01-29T07:10:25.225Z,456.00
2019-01-29T07:11:25.164Z,440.00
2019-01-29T07:12:25.174Z,432.00
2019-01-29T07:13:25.174Z,420.00
2019-01-29T07:14:25.192Z,428.00
2019-01-29T07:15:25.217Z,428.00
2019-01-29T07:16:25.225Z,404.00
2019-01-29T07:17:25.237Z,408.00
2019-01-29T07:18:25.188Z,444.00
2019-01-29T07:19:25.215Z,452.00
2019-01-29T07:20:25.182Z,496.00
2019-01-29T07:21:25.198Z,532.00
2019-01-29T07:22:25.215Z,552.00
2019-01-29T07:23:25.193Z,544.00
2019-01-29T07:24:25.193Z,444.00
2019-01-29T07:25:25.254Z,404.00
2019-01-29T07:26:25.231Z,424.00
2019-01-29T07:27:25.202Z,460.00
2019-01-29T07:28:25.206Z,424.00
2019-01-29T07:29:25.231Z,484.00
2019-01-29T07:30:25.238Z,488.00
2019-01-29T07:31:25.233Z,512.00
2019-01-29T07:32:25.228Z,524.00
2019-01-29T07:33:25.228Z,580.00
2019-01-29T07:34:25.262Z,612.00
2019-01-29T07:35:25.224Z,604.00
2019-01-29T07:36:25.261Z,728.00
2019-01-29T07:37:25.250Z,844.00
2019-01-29T07:38:25.240Z,892.00
2019-01-29T07:39:25.247Z,1036.00
2019-01-29T07:40:25.218Z,1140.00
2019-01-29T07:41:25.236Z,1164.00
2019-01-29T07:42:25.255Z,1144.00
2019-01-29T07:43:25.233Z,1144.00
2019-01-29T07:44:25.272Z,1084.00
2019-01-29T07:45:25.237Z,1016.00
2019-01-29T07:46:25.253Z,1264.00
2019-01-29T07:47:25.254Z,1400.00
2019-01-29T07:48:25.256Z,1388.00
2019-01-29T07:49:25.265Z,1532.00
2019-01-29T07:50:25.258Z,1812.00
2019-01-29T07:51:25.268Z,2112.00
2019-01-29T07:52:25.288Z,2284.00
2019-01-29T07:53:25.307Z,2344.00
2019-01-29T07:54:33.048Z,2480.00
2019-01-29T07:55:25.265Z,2228.00
2019-01-29T07:56:25.265Z,2180.00
2019-01-29T07:57:25.289Z,2184.00
2019-01-29T07:58:25.286Z,2044.00
2019-01-29T07:59:32.963Z,2064.00
2019-01-29T08:00:25.293Z,2112.00
2019-01-29T08:01:25.277Z,2080.00
2019-01-29T08:02:25.280Z,2164.00
2019-01-29T08:03:25.347Z,2132.00
2019-01-29T08:04:25.292Z,2132.00
2019-01-29T08:05:25.308Z,2164.00
2019-01-29T08:06:25.294Z,2104.00
2019-01-29T08:07:25.298Z,1964.00
2019-01-29T08:08:25.353Z,1884.00
2019-01-29T08:09:25.312Z,2112.00
2019-01-29T08:10:25.308Z,1968.00
2019-01-29T08:11:25.315Z,2064.00
2019-01-29T08:12:25.315Z,2140.00
2019-01-29T08:13:25.326Z,2288.00
2019-01-29T08:14:25.339Z,2440.00
2019-01-29T08:15:25.326Z,2496.00
2019-01-29T08:16:25.323Z,2892.00
2019-01-29T08:17:25.349Z,3416.00
2019-01-29T08:18:25.327Z,2728.00
2019-01-29T08:19:25.374Z,2272.00
2019-01-29T08:20:25.344Z,1988.00
2019-01-29T08:21:25.334Z,1680.00
2019-01-29T08:22:25.362Z,1240.00
2019-01-29T08:23:25.328Z,1072.00
2019-01-29T08:24:25.348Z,1444.00
2019-01-29T08:25:25.339Z,1384.00
2019-01-29T08:26:25.371Z,1264.00
2019-01-29T08:27:25.403Z,1464.00
2019-01-29T08:28:25.346Z,1636.00
2019-01-29T08:29:25.352Z,1760.00
2019-01-29T08:30:25.360Z,2164.00
2019-01-29T08:31:25.349Z,3464.00
2019-01-29T08:32:25.385Z,3124.00
2019-01-29T08:33:25.403Z,3504.00
2019-01-29T08:34:25.417Z,2748.00
2019-01-29T08:35:25.407Z,1668.00
2019-01-29T08:36:25.371Z,2304.00
2019-01-29T08:37:25.385Z,1864.00
2019-01-29T08:38:25.442Z,1612.00
2019-01-29T08:39:25.407Z,1908.00
2019-01-29T08:40:25.381Z,1716.00
2019-01-29T08:41:25.393Z,1672.00
2019-01-29T08:42:25.404Z,1332.00
2019-01-29T08:43:25.407Z,1248.00
2019-01-29T08:44:25.450Z,1364.00
2019-01-29T08:45:25.442Z,1336.00
2019-01-29T08:46:25.416Z,1136.00
2019-01-29T08:47:25.429Z,1068.00
2019-01-29T08:48:25.429Z,1160.00
2019-01-29T08:49:25.436Z,1952.00
2019-01-29T08:50:25.466Z,2576.00
2019-01-29T08:51:25.438Z,2404.00
2019-01-29T08:52:25.445Z,3768.00
2019-01-29T08:53:25.492Z,4032.00
2019-01-29T08:54:25.418Z,2500.00
2019-01-29T08:55:25.437Z,2672.00
2019-01-29T08:56:25.481Z,3316.00
2019-01-29T08:57:25.493Z,2980.00
2019-01-29T08:58:27.120Z,2856.00
2019-01-29T08:59:25.462Z,2464.00
2019-01-29T09:00:25.477Z,2684.00
2019-01-29T09:01:25.494Z,2868.00
2019-01-29T09:02:25.460Z,2828.00
2019-01-29T09:03:25.484Z,3092.00
2019-01-29T09:04:25.460Z,2652.00
2019-01-29T09:05:25.462Z,2764.00
2019-01-29T09:06:25.593Z,2480.00
2019-01-29T09:07:25.496Z,2264.00
2019-01-29T09:08:25.520Z,2416.00
2019-01-29T09:09:25.494Z,2020.00
2019-01-29T09:10:25.485Z,1772.00
2019-01-29T09:11:25.500Z,1648.00
2019-01-29T09:12:25.483Z,1748.00
2019-01-29T09:13:25.505Z,1816.00
2019-01-29T09:14:25.539Z,2372.00
2019-01-29T09:15:25.537Z,3276.00
2019-01-29T09:16:25.503Z,3376.00
2019-01-29T09:17:25.512Z,3984.00
2019-01-29T09:18:25.519Z,3504.00
2019-01-29T09:19:25.537Z,2928.00
2019-01-29T09:20:25.536Z,2604.00
2019-01-29T09:21:25.587Z,2524.00
2019-01-29T09:22:25.577Z,3004.00
2019-01-29T09:23:25.528Z,3596.00
2019-01-29T09:24:25.589Z,4272.00
2019-01-29T09:25:25.576Z,3788.00
2019-01-29T09:26:25.588Z,3020.00
2019-01-29T09:27:25.546Z,3760.00
2019-01-29T09:28:25.535Z,4012.00
2019-01-29T09:29:25.569Z,3632.00
2019-01-29T09:30:25.568Z,3612.00
2019-01-29T09:31:25.614Z,2964.00
2019-01-29T09:32:25.557Z,3504.00
2019-01-29T09:33:25.591Z,3808.00
2019-01-29T09:34:25.631Z,4676.00
2019-01-29T09:35:25.570Z,5156.00
2019-01-29T09:36:25.572Z,4708.00
2019-01-29T09:37:25.589Z,4636.00
2019-01-29T09:38:25.574Z,5032.00
2019-01-29T09:39:25.613Z,4456.00
2019-01-29T09:40:25.610Z,5024.00
2019-01-29T09:41:25.797Z,4692.00
2019-01-29T09:42:25.584Z,3932.00
2019-01-29T09:43:25.597Z,4184.00
2019-01-29T09:44:25.621Z,3960.00
2019-01-29T09:45:25.646Z,3952.00
2019-01-29T09:46:25.654Z,4488.00
2019-01-29T09:47:25.639Z,4032.00
2019-01-29T09:48:25.623Z,3040.00
2019-01-29T09:49:25.664Z,2776.00
2019-01-29T09:50:26.500Z,3080.00
2019-01-29T09:51:25.716Z,2784.00
2019-01-29T09:52:25.659Z,2528.00
2019-01-29T09:53:25.675Z,2472.00
2019-01-29T09:54:25.645Z,2756.00
2019-01-29T09:55:29.590Z,2912.00
2019-01-29T09:56:25.672Z,2892.00
2019-01-29T09:57:25.656Z,2888.00
2019-01-29T09:58:25.668Z,2640.00
2019-01-29T09:59:25.657Z,2460.00
2019-01-29T10:00:25.665Z,2956.00
2019-01-29T10:01:25.706Z,2624.00
2019-01-29T10:02:25.672Z,2464.00
2019-01-29T10:03:25.706Z,2292.00
2019-01-29T10:04:25.721Z,2668.00
2019-01-29T10:05:25.678Z,3236.00
2019-01-29T10:06:25.707Z,3476.00
2019-01-29T10:07:25.706Z,3520.00
2019-01-29T10:08:25.721Z,2860.00
2019-01-29T10:09:25.702Z,2320.00
2019-01-29T10:10:25.690Z,2960.00
2019-01-29T10:11:25.694Z,3960.00
2019-01-29T10:12:25.747Z,4240.00
2019-01-29T10:13:25.962Z,3632.00
2019-01-29T10:14:25.736Z,4320.00
2019-01-29T10:15:25.781Z,4980.00
2019-01-29T10:16:25.720Z,4908.00
2019-01-29T10:17:25.709Z,4100.00
2019-01-29T10:18:25.726Z,4384.00
2019-01-29T10:19:25.763Z,4264.00
2019-01-29T10:20:25.732Z,4268.00
2019-01-29T10:21:25.738Z,4500.00
2019-01-29T10:22:25.893Z,4260.00
2019-01-29T10:23:25.750Z,3800.00
2019-01-29T10:24:25.765Z,4476.00
2019-01-29T10:25:25.847Z,4288.00
2019-01-29T10:26:25.775Z,3752.00
2019-01-29T10:27:25.771Z,4024.00
2019-01-29T10:28:25.757Z,3968.00
2019-01-29T10:29:25.791Z,3996.00
2019-01-29T10:30:25.776Z,4604.00
2019-01-29T10:31:25.798Z,4360.00
2019-01-29T10:32:25.855Z,3528.00
2019-01-29T10:33:25.783Z,3264.00
2019-01-29T10:34:25.803Z,3340.00
2019-01-29T10:35:25.993Z,4108.00
2019-01-29T10:36:26.005Z,4940.00
2019-01-29T10:37:25.921Z,4720.00
2019-01-29T10:38:25.807Z,5304.00
2019-01-29T10:39:25.958Z,5008.00
2019-01-29T10:40:25.893Z,4812.00
2019-01-29T10:41:25.838Z,4836.00
2019-01-29T10:42:25.865Z,4156.00
2019-01-29T10:43:25.823Z,5416.00
2019-01-29T10:44:25.832Z,5820.00
2019-01-29T10:45:25.854Z,4304.00
2019-01-29T10:46:25.846Z,3732.00
2019-01-29T10:47:25.845Z,5224.00
2019-01-29T10:48:25.859Z,4216.00
2019-01-29T10:49:25.850Z,3496.00
2019-01-29T10:50:25.865Z,4192.00
2019-01-29T10:51:25.867Z,5044.00
2019-01-29T10:52:26.051Z,5120.00
2019-01-29T10:53:25.879Z,4464.00
2019-01-29T10:54:25.967Z,3672.00
2019-01-29T10:55:26.122Z,4480.00
2019-01-29T10:56:25.921Z,4244.00
2019-01-29T10:57:25.986Z,3252.00
2019-01-29T10:58:25.916Z,3280.00
2019-01-29T10:59:25.909Z,3236.00
2019-01-29T11:00:25.892Z,3932.00
2019-01-29T11:01:25.909Z,4856.00
2019-01-29T11:02:26.032Z,5124.00
2019-01-29T11:03:26.019Z,4280.00
2019-01-29T11:04:25.905Z,3828.00
2019-01-29T11:05:25.925Z,4024.00
2019-01-29T11:06:25.931Z,3832.00
2019-01-29T11:07:26.061Z,4068.00
2019-01-29T11:08:25.931Z,3632.00
2019-01-29T11:09:25.928Z,3800.00
2019-01-29T11:10:25.929Z,4668.00
2019-01-29T11:11:25.922Z,5160.00
2019-01-29T11:12:25.947Z,5204.00
2019-01-29T11:13:25.921Z,4776.00
2019-01-29T11:14:26.004Z,4536.00
2019-01-29T11:15:26.137Z,3276.00
2019-01-29T11:16:25.941Z,2836.00
2019-01-29T11:17:25.982Z,3360.00
2019-01-29T11:18:25.948Z,5280.00
2019-01-29T11:19:25.941Z,5372.00
2019-01-29T11:20:25.961Z,5856.00
2019-01-29T11:21:25.953Z,4924.00
2019-01-29T11:22:25.971Z,4692.00
2019-01-29T11:23:25.977Z,5716.00
2019-01-29T11:24:26.012Z,4940.00
2019-01-29T11:25:25.981Z,4036.00
2019-01-29T11:26:25.993Z,4464.00
2019-01-29T11:27:26.016Z,4040.00
2019-01-29T11:28:26.018Z,3488.00
2019-01-29T11:29:25.995Z,3444.00
2019-01-29T11:30:26.012Z,2804.00
2019-01-29T11:31:25.994Z,2392.00
2019-01-29T11:32:25.995Z,2332.00
2019-01-29T11:33:26.041Z,2100.00
2019-01-29T11:34:26.005Z,1892.00
2019-01-29T11:35:26.028Z,2028.00
2019-01-29T11:36:26.019Z,2680.00
2019-01-29T11:37:26.032Z,2996.00
2019-01-29T11:38:26.098Z,2572.00
2019-01-29T11:39:26.030Z,2560.00
2019-01-29T11:40:26.378Z,3336.00
2019-01-29T11:41:26.037Z,3628.00
2019-01-29T11:42:26.088Z,3264.00
2019-01-29T11:43:26.058Z,2964.00
2019-01-29T11:44:26.064Z,3700.00
2019-01-29T11:45:26.058Z,3224.00
2019-01-29T11:46:26.062Z,3144.00
2019-01-29T11:47:26.072Z,3472.00
2019-01-29T11:48:26.112Z,3412.00
2019-01-29T11:49:26.085Z,3640.00
2019-01-29T11:50:26.091Z,3356.00
2019-01-29T11:51:26.101Z,3652.00
2019-01-29T11:52:26.103Z,3456.00
2019-01-29T11:53:26.086Z,2640.00
2019-01-29T11:54:26.098Z,3220.00
2019-01-29T11:55:26.125Z,3860.00
2019-01-29T11:56:26.168Z,3788.00
2019-01-29T11:57:26.108Z,3204.00
2019-01-29T11:58:26.161Z,3176.00
2019-01-29T11:59:26.155Z,3480.00
2019-01-29T12:00:26.105Z,3548.00
2019-01-29T12:01:26.197Z,3192.00
2019-01-29T12:02:28.399Z,3040.00
2019-01-29T12:03:26.140Z,3396.00
2019-01-29T12:04:26.293Z,3412.00
2019-01-29T12:05:26.143Z,3300.00
2019-01-29T12:06:26.157Z,2996.00
2019-01-29T12:07:26.144Z,2748.00
2019-01-29T12:08:26.175Z,2560.00
2019-01-29T12:09:26.176Z,3032.00
2019-01-29T12:10:26.201Z,3260.00
2019-01-29T12:11:26.166Z,3160.00
2019-01-29T12:12:26.169Z,3028.00
2019-01-29T12:13:26.234Z,2984.00
2019-01-29T12:14:26.158Z,2868.00
2019-01-29T12:15:26.188Z,2968.00
2019-01-29T12:16:26.219Z,2764.00
2019-01-29T12:17:26.185Z,2624.00
2019-01-29T12:18:26.198Z,2876.00
2019-01-29T12:19:26.207Z,3356.00
2019-01-29T12:20:26.244Z,3652.00
2019-01-29T12:21:26.426Z,3888.00
2019-01-29T12:22:26.236Z,3912.00
2019-01-29T12:23:26.223Z,4328.00
2019-01-29T12:24:26.229Z,4396.00
2019-01-29T12:25:26.213Z,4124.00
2019-01-29T12:26:26.204Z,4324.00
2019-01-29T12:27:26.259Z,4872.00
2019-01-29T12:28:26.273Z,5412.00
2019-01-29T12:29:26.299Z,5264.00
2019-01-29T12:30:26.280Z,5284.00
2019-01-29T12:31:26.243Z,5588.00
2019-01-29T12:32:26.363Z,5888.00
2019-01-29T12:33:26.264Z,6028.00
2019-01-29T12:34:26.281Z,6124.00
2019-01-29T12:35:26.514Z,6128.00
2019-01-29T12:36:26.273Z,5780.00
2019-01-29T12:37:26.279Z,5728.00
2019-01-29T12:38:26.276Z,5740.00
2019-01-29T12:39:26.292Z,5956.00
2019-01-29T12:40:26.271Z,6152.00
2019-01-29T12:41:26.402Z,6484.00
2019-01-29T12:42:26.281Z,5904.00
2019-01-29T12:43:26.318Z,5364.00